Volkel, Netherlands
Current Conditions -  °F | °C
As of 7:25 PM on Friday 31 Oct 2014 (Local Time) from EHVK Reporting Station
Clear Clear  
Wind Chill: 59°   Ceiling: Unl
Heat Index: 59°   Visibility: 6mi
Dew Point: 55°   Wind: 5mph
Humidity: 88%   Direction: 150°SSE
Pressure: 30.12"   Gusts: NA
Location:  51.64°N, 5.65°E
Report Text: EHVK 311825Z AUTO 15004KT 9999 NCD 15/13 Q1020 BLU
Loading
Personal Weather Stations






























Interactive Weather Map
Tropical Storm Tracking
New forecast layout! Learn more

10-Day Weather Forecast

Advertisements
Track Severe Weather on mobile